KGTU

Georgetown Municipal Airport

Georgetown, Texas, USA
METAR KGTU 180256Z 15006KT 5SM BR OVC003 10/09 A3013 RMK AO2 SLP203 T01000094 51023
Observed Flight Rules
Dec-18 @ 02:56 UTC (10 minutes ago) Instrument Flight Rules
Wind Visibility Clouds Conditions
150° at 6 knots 5 miles
  • Overcast at 300' AGL
  • Mist
Temperatures Readings
Current 10°C / 50°F
Dewpoint 9°C / 48°F
Humidity 94%
Altimeter 30.13" Hg
Pressure 1020.3 hPa
Elevation 240
METAR KGTU 180256Z 15006KT 5SM BR OVC003 10/09 A3013 RMK AO2 SLP203 T01000094 51023
Observed Flight Rules
Dec-18 @ 02:56 UTC
(10 minutes ago)
LIFR
Wind Visibility
150° at 6 knots 5 miles
Clouds
  • Overcast at 300' AGL
Conditions
  • Mist
Temperature Dewpoint
10°C / 50°F 9°C / 48°F
Humidity Altimeter Pressure
94% 30.13" Hg 1020.3 hPa